createdAt,value
2018-02-11T00:01:21.913Z,28.80
2018-02-11T00:03:50.392Z,26.87
2018-02-11T00:06:19.609Z,26.73
2018-02-11T00:08:48.861Z,28.42
2018-02-11T00:11:18.074Z,26.67
2018-02-11T00:13:46.514Z,27.73
2018-02-11T00:16:15.016Z,26.48
2018-02-11T00:18:43.425Z,25.77
2018-02-11T00:21:11.859Z,27.58
2018-02-11T00:23:40.594Z,27.58
2018-02-11T00:26:09.981Z,25.23
2018-02-11T00:28:38.519Z,27.92
2018-02-11T00:31:07.007Z,24.75
2018-02-11T00:33:35.518Z,26.77
2018-02-11T00:36:03.987Z,28.50
2018-02-11T00:38:32.981Z,33.03
2018-02-11T00:41:01.757Z,27.25
2018-02-11T00:43:30.226Z,32.53
2018-02-11T00:45:58.729Z,29.58
2018-02-11T00:48:27.589Z,28.90
2018-02-11T00:50:56.112Z,30.40
2018-02-11T00:53:26.139Z,30.77
2018-02-11T00:55:54.880Z,33.08
2018-02-11T00:58:23.326Z,31.12
2018-02-11T01:00:51.862Z,32.53
2018-02-11T01:03:20.373Z,32.90
2018-02-11T01:05:49.550Z,32.30
2018-02-11T01:08:18.674Z,34.38
2018-02-11T01:10:47.187Z,33.88
2018-02-11T01:13:15.621Z,31.98
2018-02-11T01:15:44.324Z,32.35
2018-02-11T01:18:12.755Z,36.80
2018-02-11T01:20:41.189Z,35.25
2018-02-11T01:23:10.073Z,31.73
2018-02-11T01:25:38.481Z,29.27
2018-02-11T01:28:06.904Z,32.55
2018-02-11T01:30:35.361Z,31.62
2018-02-11T01:33:03.789Z,31.25
2018-02-11T01:35:32.438Z,30.98
2018-02-11T01:38:01.657Z,29.30
2018-02-11T01:40:30.103Z,30.40
2018-02-11T01:42:58.538Z,33.75
2018-02-11T01:45:27.749Z,31.92
2018-02-11T01:47:56.217Z,32.60
2018-02-11T01:50:24.686Z,34.47
2018-02-11T01:52:53.578Z,33.08
2018-02-11T01:55:22.080Z,33.80
2018-02-11T01:57:51.276Z,35.92
2018-02-11T02:00:20.371Z,32.90
2018-02-11T02:02:48.863Z,32.40
2018-02-11T02:05:17.285Z,33.17
2018-02-11T02:07:45.897Z,32.85
2018-02-11T02:10:14.306Z,33.40
2018-02-11T02:12:42.733Z,35.72
2018-02-11T02:15:11.187Z,34.85
2018-02-11T02:17:39.696Z,35.90
2018-02-11T02:20:08.801Z,38.55
2018-02-11T02:22:37.758Z,33.03
2018-02-11T02:25:06.251Z,31.58
2018-02-11T02:27:34.683Z,35.60
2018-02-11T02:30:03.525Z,30.30
2018-02-11T02:32:32.006Z,31.55
2018-02-11T02:35:00.848Z,32.60
2018-02-11T02:37:29.417Z,37.85
2018-02-11T02:39:57.853Z,34.75
2018-02-11T02:42:26.380Z,40.00
2018-02-11T02:44:55.076Z,37.80
2018-02-11T02:47:23.658Z,36.75
2018-02-11T02:49:52.209Z,35.90
2018-02-11T02:52:21.328Z,37.30
2018-02-11T02:54:49.833Z,35.75
2018-02-11T02:57:18.306Z,29.75
2018-02-11T02:59:47.632Z,37.47
2018-02-11T03:02:16.056Z,35.20
2018-02-11T03:04:44.497Z,30.45
2018-02-11T03:07:13.027Z,36.97
2018-02-11T03:09:41.556Z,30.37
2018-02-11T03:12:10.122Z,29.52
2018-02-11T03:14:38.568Z,32.95
2018-02-11T03:17:06.976Z,31.70
2018-02-11T03:19:35.401Z,31.33
2018-02-11T03:22:03.911Z,34.50
2018-02-11T03:24:32.436Z,30.20
2018-02-11T03:27:00.889Z,31.15
2018-02-11T03:29:29.880Z,29.85
2018-02-11T03:31:58.404Z,25.83
2018-02-11T03:34:26.891Z,32.33
2018-02-11T03:36:55.544Z,32.10
2018-02-11T03:39:24.398Z,26.62
2018-02-11T03:41:53.493Z,28.27
2018-02-11T03:44:22.288Z,30.80
2018-02-11T03:46:50.782Z,31.87
2018-02-11T03:49:19.211Z,25.58
2018-02-11T03:51:48.025Z,30.42
2018-02-11T03:54:16.432Z,28.92
2018-02-11T03:56:44.855Z,28.08
2018-02-11T03:59:13.314Z,24.83
2018-02-11T04:01:41.724Z,27.55
2018-02-11T04:04:10.275Z,24.58
2018-02-11T04:06:39.112Z,24.90
2018-02-11T04:09:07.517Z,26.77
2018-02-11T04:11:36.922Z,28.70
2018-02-11T04:14:05.369Z,28.80
2018-02-11T04:16:33.784Z,28.27
2018-02-11T04:19:02.230Z,23.17
2018-02-11T04:21:31.376Z,26.73
2018-02-11T04:23:59.857Z,26.33
2018-02-11T04:26:28.343Z,26.62
2018-02-11T04:28:57.299Z,24.65
2018-02-11T04:31:25.739Z,25.50
2018-02-11T04:33:54.398Z,27.75
2018-02-11T04:36:23.392Z,24.65
2018-02-11T04:38:51.810Z,25.95
2018-02-11T04:41:20.444Z,23.98
2018-02-11T04:43:50.408Z,23.10
2018-02-11T04:48:58.988Z,27.37
2018-02-11T04:51:27.461Z,25.58
2018-02-11T04:53:56.310Z,20.83
2018-02-11T04:56:25.174Z,23.08
2018-02-11T04:58:53.621Z,23.17
2018-02-11T05:01:22.097Z,24.60
2018-02-11T05:03:50.618Z,21.50
2018-02-11T05:06:19.025Z,21.48
2018-02-11T05:08:47.502Z,18.12
2018-02-11T05:11:16.437Z,19.40
2018-02-11T05:13:44.867Z,20.92
2018-02-11T05:16:13.301Z,23.10
2018-02-11T05:18:41.932Z,17.12
2018-02-11T05:21:10.361Z,18.60
2018-02-11T05:23:38.809Z,20.33
2018-02-11T05:26:07.501Z,21.62
2018-02-11T05:28:35.909Z,22.67
2018-02-11T05:31:04.347Z,22.17
2018-02-11T05:33:33.038Z,19.80
2018-02-11T05:36:01.498Z,17.30
2018-02-11T05:38:30.035Z,19.00
2018-02-11T05:40:58.665Z,19.55
2018-02-11T05:43:27.248Z,19.00
2018-02-11T05:45:55.761Z,17.33
2018-02-11T05:48:24.250Z,12.93
2018-02-11T05:50:53.025Z,19.42
2018-02-11T05:53:21.465Z,20.65
2018-02-11T05:55:50.115Z,19.35
2018-02-11T05:58:18.528Z,13.45
2018-02-11T06:00:47.843Z,14.80
2018-02-11T06:03:16.438Z,17.85
2018-02-11T06:05:44.897Z,17.12
2018-02-11T06:08:13.377Z,17.33
2018-02-11T06:10:42.252Z,14.93
2018-02-11T06:13:10.847Z,19.87
2018-02-11T06:15:39.283Z,16.87
2018-02-11T06:18:07.814Z,14.40
2018-02-11T06:20:36.218Z,16.17
2018-02-11T06:23:04.618Z,13.35
2018-02-11T06:25:33.072Z,14.57
2018-02-11T06:28:01.479Z,18.10
2018-02-11T06:30:30.154Z,16.87
2018-02-11T06:32:58.807Z,15.25
2018-02-11T06:35:27.343Z,18.27
2018-02-11T06:37:55.761Z,13.55
2018-02-11T06:40:24.540Z,19.12
2018-02-11T06:42:53.020Z,17.05
2018-02-11T06:45:21.528Z,18.55
2018-02-11T06:47:50.434Z,19.08
2018-02-11T06:50:18.863Z,19.27
2018-02-11T06:52:47.257Z,18.90
2018-02-11T06:55:15.734Z,14.93
2018-02-11T06:57:44.170Z,18.42
2018-02-11T07:00:12.620Z,16.83
2018-02-11T07:02:41.170Z,18.50
2018-02-11T07:05:09.593Z,16.02
2018-02-11T07:07:38.163Z,18.60
2018-02-11T07:10:06.825Z,14.93
2018-02-11T07:12:35.409Z,16.33
2018-02-11T07:15:03.865Z,16.85
2018-02-11T07:17:32.356Z,16.77
2018-02-11T07:20:00.788Z,16.00
2018-02-11T07:22:29.244Z,14.75
2018-02-11T07:24:58.152Z,14.45
2018-02-11T07:27:26.570Z,16.50
2018-02-11T07:29:55.146Z,17.33
2018-02-11T07:32:23.700Z,13.65
2018-02-11T07:34:52.214Z,15.98
2018-02-11T07:37:20.689Z,16.67
2018-02-11T07:39:49.650Z,16.75
2018-02-11T07:42:18.345Z,14.43
2018-02-11T07:44:47.358Z,17.95
2018-02-11T07:47:16.160Z,17.50
2018-02-11T07:49:44.592Z,11.82
2018-02-11T07:52:13.002Z,14.60
2018-02-11T07:54:41.518Z,11.55
2018-02-11T07:57:09.942Z,16.20
2018-02-11T07:59:38.361Z,13.77
2018-02-11T08:02:07.092Z,17.00
2018-02-11T08:04:35.526Z,13.57
2018-02-11T08:07:03.939Z,15.82
2018-02-11T08:09:33.018Z,12.35
2018-02-11T08:12:01.439Z,17.90
2018-02-11T08:14:29.892Z,15.25
2018-02-11T08:16:58.338Z,13.93
2018-02-11T08:19:26.759Z,15.27
2018-02-11T08:21:55.436Z,16.27
2018-02-11T08:24:24.300Z,11.88
2018-02-11T08:26:52.778Z,16.15
2018-02-11T08:29:21.871Z,17.00
2018-02-11T08:31:51.477Z,12.98
2018-02-11T08:34:20.714Z,16.73
2018-02-11T08:36:49.359Z,13.90
2018-02-11T08:39:17.891Z,15.85
2018-02-11T08:41:46.361Z,13.90
2018-02-11T08:44:14.774Z,14.00
2018-02-11T08:46:43.388Z,14.60
2018-02-11T08:49:11.825Z,15.23
2018-02-11T08:51:40.237Z,10.88
2018-02-11T08:54:08.725Z,11.73
2018-02-11T08:56:37.170Z,12.93
2018-02-11T08:59:05.755Z,12.90
2018-02-11T09:01:34.581Z,13.70
2018-02-11T09:04:03.721Z,11.60
2018-02-11T09:06:32.219Z,11.90
2018-02-11T09:09:00.695Z,8.35
2018-02-11T09:11:29.230Z,12.88
2018-02-11T09:13:57.657Z,9.68
2018-02-11T09:16:26.508Z,12.45
2018-02-11T09:18:55.489Z,11.35
2018-02-11T09:21:24.342Z,7.57
2018-02-11T09:23:52.845Z,9.30
2018-02-11T09:26:21.503Z,10.60
2018-02-11T09:28:50.120Z,8.85
2018-02-11T09:31:19.074Z,7.30
2018-02-11T09:33:47.740Z,9.25
2018-02-11T09:36:16.192Z,10.32
2018-02-11T09:38:44.842Z,9.60
2018-02-11T09:41:13.236Z,8.32
2018-02-11T09:43:42.314Z,9.05
2018-02-11T09:46:11.142Z,9.13
2018-02-11T09:48:39.583Z,8.85
2018-02-11T09:51:08.000Z,7.87
2018-02-11T09:53:36.461Z,7.37
2018-02-11T09:56:04.886Z,6.45
2018-02-11T09:58:33.330Z,8.35
2018-02-11T10:01:02.228Z,6.80
2018-02-11T10:03:31.128Z,8.05
2018-02-11T10:05:59.562Z,7.37
2018-02-11T10:08:28.376Z,6.47
2018-02-11T10:10:56.853Z,6.95
2018-02-11T10:13:25.434Z,7.18
2018-02-11T10:15:53.962Z,5.72
2018-02-11T10:18:22.501Z,6.85
2018-02-11T10:20:51.942Z,7.62
2018-02-11T10:23:20.572Z,6.90
2018-02-11T10:25:49.001Z,4.00
2018-02-11T10:28:17.432Z,6.47
2018-02-11T10:30:46.017Z,5.93
2018-02-11T10:33:14.425Z,6.97
2018-02-11T10:35:42.902Z,6.32
2018-02-11T10:38:11.566Z,6.05
2018-02-11T10:40:40.031Z,7.87
2018-02-11T10:43:08.461Z,7.85
2018-02-11T10:45:37.328Z,5.97
2018-02-11T10:48:05.978Z,8.07
2018-02-11T10:50:34.371Z,7.53
2018-02-11T10:53:02.823Z,7.15
2018-02-11T10:55:31.252Z,7.55
2018-02-11T10:57:59.812Z,8.25
2018-02-11T11:00:28.390Z,7.72
2018-02-11T11:02:56.872Z,8.18
2018-02-11T11:05:25.390Z,8.73
2018-02-11T11:07:54.803Z,8.00
2018-02-11T11:10:23.284Z,8.60
2018-02-11T11:12:51.870Z,8.30
2018-02-11T11:15:20.716Z,8.77
2018-02-11T11:17:49.158Z,8.60
2018-02-11T11:20:17.642Z,8.73
2018-02-11T11:22:46.267Z,9.13
2018-02-11T11:25:14.823Z,8.05
2018-02-11T11:27:43.285Z,8.30
2018-02-11T11:30:12.038Z,8.90
2018-02-11T11:32:40.484Z,7.03
2018-02-11T11:35:08.909Z,8.43
2018-02-11T11:37:37.365Z,7.50
2018-02-11T11:40:05.800Z,9.10
2018-02-11T11:42:34.205Z,8.05
2018-02-11T11:45:03.166Z,7.65
2018-02-11T11:47:31.575Z,7.78
2018-02-11T11:50:00.206Z,8.27
2018-02-11T11:52:28.924Z,8.57
2018-02-11T11:54:57.514Z,6.30
2018-02-11T11:57:26.229Z,6.43
2018-02-11T11:59:55.174Z,6.50
2018-02-11T12:02:24.076Z,5.93
2018-02-11T12:04:53.152Z,6.80
2018-02-11T12:07:21.946Z,6.43
2018-02-11T12:09:50.478Z,6.22
2018-02-11T12:12:18.982Z,5.78
2018-02-11T12:14:47.429Z,6.18
2018-02-11T12:17:15.885Z,6.60
2018-02-11T12:19:44.369Z,5.12
2018-02-11T12:22:13.253Z,6.30
2018-02-11T12:24:41.685Z,5.85
2018-02-11T12:27:10.173Z,6.10
2018-02-11T12:29:38.641Z,6.25
2018-02-11T12:32:07.101Z,5.28
2018-02-11T12:34:35.479Z,6.45
2018-02-11T12:37:04.118Z,5.20
2018-02-11T12:39:32.522Z,5.75
2018-02-11T12:42:00.928Z,6.80
2018-02-11T12:44:29.713Z,6.12
2018-02-11T12:46:58.217Z,6.22
2018-02-11T12:49:26.750Z,5.82
2018-02-11T12:51:56.588Z,5.70
2018-02-11T12:54:25.289Z,5.93
2018-02-11T12:56:53.752Z,5.00
2018-02-11T12:59:23.159Z,5.20
2018-02-11T13:01:51.778Z,5.45
2018-02-11T13:04:20.259Z,5.70
2018-02-11T13:06:48.749Z,5.28
2018-02-11T13:09:17.955Z,4.82
2018-02-11T13:11:46.456Z,5.28
2018-02-11T13:14:15.249Z,5.25
2018-02-11T13:16:43.757Z,4.55
2018-02-11T13:19:12.165Z,4.75
2018-02-11T13:21:41.017Z,6.20
2018-02-11T13:24:09.408Z,6.22
2018-02-11T13:26:37.886Z,5.70
2018-02-11T13:29:06.553Z,5.85
2018-02-11T13:31:34.997Z,4.80
2018-02-11T13:34:03.440Z,5.35
2018-02-11T13:36:31.893Z,5.03
2018-02-11T13:39:00.422Z,6.37
2018-02-11T13:41:28.912Z,5.05
2018-02-11T13:43:58.839Z,5.20
2018-02-11T13:46:27.528Z,5.70
2018-02-11T13:48:56.794Z,6.30
2018-02-11T13:51:25.876Z,5.05
2018-02-11T13:53:55.066Z,6.60
2018-02-11T13:56:23.724Z,6.35
2018-02-11T13:58:53.093Z,5.82
2018-02-11T14:01:22.394Z,6.18
2018-02-11T14:03:51.085Z,5.78
2018-02-11T14:06:19.794Z,6.43
2018-02-11T14:08:48.218Z,7.22
2018-02-11T14:11:16.659Z,6.72
2018-02-11T14:13:45.230Z,6.82
2018-02-11T14:16:13.705Z,6.93
2018-02-11T14:18:42.121Z,5.62
2018-02-11T14:21:10.905Z,5.78
2018-02-11T14:23:39.301Z,5.82
2018-02-11T14:26:07.696Z,4.43
2018-02-11T14:28:36.503Z,5.50
2018-02-11T14:31:04.926Z,4.60
2018-02-11T14:33:33.385Z,6.30
2018-02-11T14:36:02.216Z,4.93
2018-02-11T14:38:30.795Z,5.70
2018-02-11T14:40:59.294Z,5.60
2018-02-11T14:43:28.083Z,5.85
2018-02-11T14:45:57.089Z,5.32
2018-02-11T14:48:25.755Z,6.47
2018-02-11T14:50:54.288Z,5.37
2018-02-11T14:53:23.028Z,5.30
2018-02-11T14:55:51.610Z,4.70
2018-02-11T14:58:20.437Z,5.18
2018-02-11T15:00:48.877Z,4.55
2018-02-11T15:03:17.426Z,4.65
2018-02-11T15:05:45.920Z,4.65
2018-02-11T15:08:14.412Z,4.43
2018-02-11T15:10:42.797Z,4.68
2018-02-11T15:13:11.445Z,4.32
2018-02-11T15:15:39.878Z,3.87
2018-02-11T15:18:08.336Z,3.95
2018-02-11T15:20:36.790Z,3.90
2018-02-11T15:23:05.220Z,3.55
2018-02-11T15:25:33.717Z,3.40
2018-02-11T15:28:02.872Z,3.12
2018-02-11T15:30:31.353Z,3.00
2018-02-11T15:32:59.806Z,3.65
2018-02-11T15:35:28.401Z,2.80
2018-02-11T15:37:57.038Z,2.90
2018-02-11T15:40:25.988Z,3.00
2018-02-11T15:42:55.819Z,2.53
2018-02-11T15:45:24.775Z,3.78
2018-02-11T15:47:53.312Z,3.05
2018-02-11T15:50:21.869Z,3.33
2018-02-11T15:52:50.783Z,4.47
2018-02-11T15:55:19.195Z,3.60
2018-02-11T15:57:48.101Z,2.65
2018-02-11T16:00:16.515Z,3.58
2018-02-11T16:02:45.016Z,3.25
2018-02-11T16:05:14.239Z,3.03
2018-02-11T16:07:42.642Z,4.18
2018-02-11T16:10:11.076Z,2.60
2018-02-11T16:12:39.642Z,2.95
2018-02-11T16:15:08.121Z,3.30
2018-02-11T16:17:37.511Z,2.40
2018-02-11T16:20:05.997Z,2.80
2018-02-11T16:22:34.635Z,4.47
2018-02-11T16:25:03.096Z,2.50
2018-02-11T16:27:32.236Z,4.80
2018-02-11T16:30:00.783Z,3.35
2018-02-11T16:32:29.327Z,2.97
2018-02-11T16:34:58.003Z,2.65
2018-02-11T16:37:26.670Z,3.12
2018-02-11T16:39:55.193Z,4.70
2018-02-11T16:42:24.585Z,3.47
2018-02-11T16:44:53.267Z,3.58
2018-02-11T16:47:22.747Z,3.20
2018-02-11T16:49:51.437Z,2.70
2018-02-11T16:52:19.955Z,3.60
2018-02-11T16:54:48.421Z,3.25
2018-02-11T16:57:16.961Z,3.80
2018-02-11T16:59:45.398Z,3.55
2018-02-11T17:02:13.828Z,2.83
2018-02-11T17:04:42.448Z,3.75
2018-02-11T17:07:10.855Z,2.87
2018-02-11T17:09:39.276Z,4.65
2018-02-11T17:12:08.161Z,3.70
2018-02-11T17:14:37.165Z,3.92
2018-02-11T17:17:05.571Z,3.90
2018-02-11T17:19:34.160Z,3.45
2018-02-11T17:22:02.640Z,3.35
2018-02-11T17:24:31.176Z,4.18
2018-02-11T17:26:59.802Z,3.28
2018-02-11T17:29:28.382Z,3.00
2018-02-11T17:31:56.929Z,3.65
2018-02-11T17:34:25.755Z,3.65
2018-02-11T17:36:54.273Z,3.58
2018-02-11T17:39:22.777Z,4.40
2018-02-11T17:41:52.027Z,3.97
2018-02-11T17:44:20.587Z,4.47
2018-02-11T17:46:49.101Z,3.85
2018-02-11T17:49:19.153Z,5.82
2018-02-11T17:51:47.644Z,6.43
2018-02-11T17:54:16.148Z,4.25
2018-02-11T17:56:44.617Z,4.47
2018-02-11T17:59:13.090Z,3.42
2018-02-11T18:01:41.578Z,4.45
2018-02-11T18:04:11.447Z,3.53
2018-02-11T18:06:40.274Z,3.75
2018-02-11T18:09:08.760Z,4.62
2018-02-11T18:11:38.076Z,3.05
2018-02-11T18:14:07.452Z,4.28
2018-02-11T18:16:35.884Z,2.97
2018-02-11T18:19:04.357Z,3.80
2018-02-11T18:21:32.884Z,4.95
2018-02-11T18:24:01.376Z,4.68
2018-02-11T18:26:30.547Z,5.75
2018-02-11T18:28:59.435Z,4.95
2018-02-11T18:31:28.107Z,4.40
2018-02-11T18:33:56.589Z,3.50
2018-02-11T18:36:25.207Z,3.85
2018-02-11T18:38:53.686Z,4.60
2018-02-11T18:41:22.285Z,2.72
2018-02-11T18:43:50.718Z,3.12
2018-02-11T18:46:19.293Z,3.90
2018-02-11T18:48:48.108Z,3.80
2018-02-11T18:51:16.590Z,5.60
2018-02-11T18:53:45.036Z,3.65
2018-02-11T18:56:13.638Z,3.55
2018-02-11T18:58:42.073Z,4.30
2018-02-11T19:01:10.489Z,4.55
2018-02-11T19:03:39.153Z,4.82
2018-02-11T19:06:07.661Z,5.25
2018-02-11T19:08:36.114Z,4.32
2018-02-11T19:11:04.853Z,4.25
2018-02-11T19:13:33.280Z,5.55
2018-02-11T19:16:01.717Z,3.75
2018-02-11T19:18:31.168Z,4.55
2018-02-11T19:20:59.574Z,4.07
2018-02-11T19:23:28.044Z,5.03
2018-02-11T19:25:56.992Z,3.40
2018-02-11T19:28:25.891Z,4.40
2018-02-11T19:30:54.426Z,3.40
2018-02-11T19:33:23.608Z,6.90
2018-02-11T19:35:52.134Z,3.67
2018-02-11T19:38:21.009Z,5.05
2018-02-11T19:40:49.629Z,4.90
2018-02-11T19:43:18.144Z,5.25
2018-02-11T19:45:46.738Z,5.00
2018-02-11T19:48:15.298Z,3.65
2018-02-11T19:50:43.779Z,4.05
2018-02-11T19:53:12.200Z,5.05
2018-02-11T19:55:41.618Z,6.12
2018-02-11T19:58:10.011Z,4.57
2018-02-11T20:00:38.427Z,3.30
2018-02-11T20:03:07.253Z,4.35
2018-02-11T20:05:35.657Z,4.15
2018-02-11T20:08:04.086Z,4.28
2018-02-11T20:10:32.645Z,3.85
2018-02-11T20:13:01.153Z,4.57
2018-02-11T20:15:29.578Z,6.22
2018-02-11T20:17:58.550Z,4.82
2018-02-11T20:20:27.034Z,4.90
2018-02-11T20:22:55.541Z,4.43
2018-02-11T20:25:24.176Z,4.75
2018-02-11T20:27:52.811Z,5.90
2018-02-11T20:30:21.324Z,3.17
2018-02-11T20:32:50.241Z,4.70
2018-02-11T20:35:18.662Z,3.72
2018-02-11T20:37:47.071Z,3.67
2018-02-11T20:40:16.402Z,4.15
2018-02-11T20:42:44.843Z,3.78
2018-02-11T20:45:13.268Z,4.35
2018-02-11T20:47:41.786Z,3.22
2018-02-11T20:50:10.222Z,4.05
2018-02-11T20:52:38.642Z,3.22
2018-02-11T20:55:07.617Z,3.72
2018-02-11T20:57:36.139Z,4.10
2018-02-11T21:00:04.560Z,4.10
2018-02-11T21:02:34.116Z,6.05
2018-02-11T21:05:02.585Z,5.43
2018-02-11T21:07:30.981Z,3.03
2018-02-11T21:09:59.761Z,3.90
2018-02-11T21:12:28.205Z,4.65
2018-02-11T21:14:56.716Z,3.55
2018-02-11T21:17:25.815Z,5.37
2018-02-11T21:19:54.443Z,5.60
2018-02-11T21:22:23.081Z,3.70
2018-02-11T21:24:51.629Z,4.25
2018-02-11T21:27:20.093Z,4.82
2018-02-11T21:29:48.492Z,5.57
2018-02-11T21:32:17.232Z,3.62
2018-02-11T21:34:45.630Z,4.50
2018-02-11T21:37:14.033Z,3.37
2018-02-11T21:39:43.332Z,3.35
2018-02-11T21:42:11.745Z,3.40
2018-02-11T21:44:40.202Z,3.85
2018-02-11T21:47:08.657Z,3.30
2018-02-11T21:49:37.081Z,3.12
2018-02-11T21:52:05.484Z,3.50
2018-02-11T21:54:35.670Z,4.22
2018-02-11T21:57:04.083Z,4.60
2018-02-11T21:59:32.473Z,3.80
2018-02-11T22:02:01.772Z,4.50
2018-02-11T22:04:30.384Z,3.65
2018-02-11T22:06:58.876Z,2.83
2018-02-11T22:09:27.517Z,3.72
2018-02-11T22:11:56.435Z,3.20
2018-02-11T22:14:25.093Z,3.95
2018-02-11T22:16:53.659Z,6.57
2018-02-11T22:19:22.264Z,3.67
2018-02-11T22:21:51.224Z,3.42
2018-02-11T22:24:19.697Z,3.92
2018-02-11T22:26:48.144Z,3.90
2018-02-11T22:29:16.560Z,3.55
2018-02-11T22:31:45.178Z,3.62
2018-02-11T22:34:13.607Z,3.45
2018-02-11T22:36:42.060Z,4.65
2018-02-11T22:39:10.678Z,4.25
2018-02-11T22:41:39.121Z,2.60
2018-02-11T22:44:07.533Z,2.90
2018-02-11T22:46:36.040Z,3.78
2018-02-11T22:49:04.502Z,4.10
2018-02-11T22:51:32.948Z,3.17
2018-02-11T22:54:02.328Z,3.97
2018-02-11T22:56:30.903Z,3.53
2018-02-11T22:58:59.429Z,3.10
2018-02-11T23:01:27.928Z,3.85
2018-02-11T23:03:56.510Z,4.70
2018-02-11T23:06:24.997Z,3.75
2018-02-11T23:08:53.677Z,2.78
2018-02-11T23:11:22.200Z,3.20
2018-02-11T23:13:50.679Z,3.75
2018-02-11T23:16:19.904Z,3.53
2018-02-11T23:18:48.307Z,2.70
2018-02-11T23:21:16.897Z,3.28
2018-02-11T23:23:45.726Z,4.25
2018-02-11T23:26:14.178Z,3.67
2018-02-11T23:28:42.605Z,5.10
2018-02-11T23:31:11.085Z,3.33
2018-02-11T23:33:39.525Z,4.55
2018-02-11T23:36:07.921Z,3.05
2018-02-11T23:38:36.971Z,3.75
2018-02-11T23:41:05.433Z,2.97
2018-02-11T23:43:33.825Z,3.53
2018-02-11T23:46:02.347Z,3.97
2018-02-11T23:48:30.788Z,2.97
2018-02-11T23:50:59.278Z,3.50
2018-02-11T23:53:28.401Z,3.62
2018-02-11T23:55:56.860Z,3.83
2018-02-11T23:58:25.364Z,3.17
